Issued by NWS Bismarck, ND

Home | Current Version | Previous Version | Text Only | Print | Product List | Glossary On
Versions: 1 2 3 4 5 6 7 8 9 10 11 12 13 14
319
FTUS43 KBIS 012333
TAFISN
TAF
KISN 012333Z 0200/0224 29005KT P6SM FEW250
     FM020300 23005KT P6SM SCT250
     FM021300 29005KT P6SM SCT200
     FM021800 35009KT P6SM FEW200=

USA.gov is the U.S. government's official web portal to all federal, state and local government web resources and services.